WABB

Frans Kaisiepo Airport

Biak-Supiori Island, Indonesia
TAF COR WABB 182200Z 1900/2006 26011KT 9999 SCT018 BECMG 1910/1912 32005KT
Issued Valid From Valid To
Dec-18 @ 22:00 UTC
(2 hours ago)
Dec-19 @ 00:00 UTC
(10 minutes ago)
Dec-20 @ 06:00 UTC
(-1 days ago)
Dec-19 @ 00:00 to Dec-19 @ 10:00
TAF COR WABB 182200Z 1900/2006 26011KT 9999 SCT018
Wind Visibility Clouds
260° at 11 knots 10,000+ meters
  • Scattered at 1,800' AGL
Becoming Dec-19 @ 10:00 to Dec-20 @ 06:00
BECMG 1910/1912 32005KT
Wind Visibility Clouds
320° at 5 knots 10,000+ meters
  • Scattered at 1,800' AGL
TAF COR WABB 182200Z 1900/2006 26011KT 9999 SCT018 BECMG 1910/1912 32005KT
Issued Dec-18 @ 22:00 UTC
(2 hours ago)
Valid From Dec-19 @ 00:00 UTC
(10 minutes ago)
Valid To Dec-20 @ 06:00 UTC
(-1 days ago)
Dec-19 @ 00:00 - Dec-19 @ 10:00
Wind Visibility
260° at 11 knots 10,000+ meters
Clouds
  • Scattered at 1,800' AGL
Becoming Dec-19 @ 10:00 - Dec-20 @ 06:00
Wind Visibility
320° at 5 knots 10,000+ meters
Clouds
  • Scattered at 1,800' AGL